Time;durP1;ratioP1;P1;durP2;ratioP2;P2;SDS_P1;SDS_P2;PMS_P1;PMS_P2;Temp;Humidity;BMP_temperature;BMP_pressure;BME280_temperature;BME280_humidity;BME280_pressure;Samples;Min_cycle;Max_cycle;Signal;HPM_P1;HPM_P2
2022/05/05 00:02:03;;;;;;;17.13;10.85;;;7.60;99.90;;;;;;5057251;28;20037;-47
2022/05/05 00:04:29;;;;;;;17.75;11.88;;;7.60;99.90;;;;;;5058805;28;20538;-50
2022/05/05 00:06:54;;;;;;;14.43;10.15;;;7.60;99.90;;;;;;5061891;28;20053;-52
2022/05/05 00:09:20;;;;;;;15.98;10.55;;;7.60;99.90;;;;;;5059262;28;20106;-55
2022/05/05 00:14:33;;;;;;;16.90;11.00;;;7.60;99.90;;;;;;5055395;28;20071;-50
2022/05/05 00:17:03;;;;;;;12.80;10.07;;;7.60;99.90;;;;;;5051894;28;20127;-45
2022/05/05 00:19:32;;;;;;;13.80;9.57;;;7.60;99.90;;;;;;5054928;28;20056;-48
2022/05/05 00:21:58;;;;;;;15.70;10.75;;;7.60;99.90;;;;;;5058794;28;20522;-50
2022/05/05 00:24:24;;;;;;;16.25;10.63;;;7.60;99.90;;;;;;5058699;28;20495;-51
2022/05/05 00:26:54;;;;;;;12.35;10.55;;;7.60;99.90;;;;;;5057796;28;20051;-54
2022/05/05 00:29:20;;;;;;;19.15;10.68;;;7.60;99.90;;;;;;5058987;28;20724;-43
2022/05/05 00:31:47;;;;;;;17.58;10.32;;;7.60;99.90;;;;;;5033666;28;20110;-48
2022/05/05 00:34:14;;;;;;;14.90;10.75;;;7.50;99.90;;;;;;5058153;28;20052;-51
2022/05/05 00:36:40;;;;;;;17.52;10.13;;;7.60;99.90;;;;;;5058157;28;20509;-51
2022/05/05 00:39:07;;;;;;;16.92;10.75;;;7.60;99.90;;;;;;5042202;28;20135;-47
2022/05/05 00:41:45;;;;;;;14.45;10.23;;;7.50;99.90;;;;;;5052811;28;20469;-50
2022/05/05 00:44:11;;;;;;;14.35;10.90;;;7.50;99.90;;;;;;5053343;28;20044;-49
2022/05/05 00:46:38;;;;;;;17.02;11.13;;;7.50;99.90;;;;;;5058230;28;20407;-48
2022/05/05 00:49:05;;;;;;;14.40;10.23;;;7.50;99.90;;;;;;5041110;28;20057;-50
2022/05/05 00:51:31;;;;;;;17.08;12.50;;;7.50;99.90;;;;;;5050345;28;20061;-49
2022/05/05 00:53:56;;;;;;;14.85;10.45;;;7.50;99.90;;;;;;5033929;28;20054;-49
2022/05/05 00:56:23;;;;;;;17.15;10.07;;;7.50;99.90;;;;;;5048589;28;20056;-51
2022/05/05 00:58:52;;;;;;;15.82;11.18;;;7.50;99.90;;;;;;5052768;28;20554;-50
2022/05/05 01:01:19;;;;;;;18.48;9.65;;;7.50;99.90;;;;;;5059063;28;20495;-47
2022/05/05 01:03:46;;;;;;;14.75;11.25;;;7.40;99.90;;;;;;5039985;28;20067;-50
2022/05/05 01:06:14;;;;;;;16.30;10.38;;;7.40;99.90;;;;;;5058416;28;20487;-50
2022/05/05 01:08:40;;;;;;;18.77;10.93;;;7.40;99.90;;;;;;5059581;28;20060;-48
2022/05/05 01:11:07;;;;;;;14.07;10.80;;;7.40;99.90;;;;;;5062425;28;20040;-48
2022/05/05 01:13:33;;;;;;;14.60;11.85;;;7.40;99.90;;;;;;5053584;28;20250;-48
2022/05/05 01:15:59;;;;;;;14.40;11.13;;;7.40;99.90;;;;;;5062210;28;20437;-48
2022/05/05 01:18:25;;;;;;;18.77;11.20;;;7.30;99.90;;;;;;5059834;28;20087;-48
2022/05/05 01:20:54;;;;;;;14.15;11.27;;;7.40;99.90;;;;;;5055590;28;20130;-51
2022/05/05 01:23:20;;;;;;;16.17;11.43;;;7.40;99.90;;;;;;5066167;28;20488;-50
2022/05/05 01:28:33;;;;;;;14.65;11.43;;;7.40;99.90;;;;;;5056886;28;20106;-47
2022/05/05 01:31:00;;;;;;;16.95;10.93;;;7.30;99.90;;;;;;5043654;28;20083;-48
2022/05/05 01:33:27;;;;;;;17.92;11.50;;;7.30;99.90;;;;;;5043590;28;20060;-47
2022/05/05 01:35:55;;;;;;;14.65;11.05;;;7.30;99.90;;;;;;5061348;28;20048;-48
2022/05/05 01:38:23;;;;;;;18.27;10.98;;;7.30;99.90;;;;;;5062506;28;20048;-51
2022/05/05 01:40:48;;;;;;;14.77;10.48;;;7.30;99.90;;;;;;5060676;28;20380;-47
2022/05/05 01:43:16;;;;;;;18.63;11.48;;;7.30;99.90;;;;;;5048672;28;20582;-48
2022/05/05 01:45:43;;;;;;;14.15;10.70;;;7.20;99.90;;;;;;5048731;28;20052;-50
2022/05/05 01:48:10;;;;;;;16.00;12.00;;;7.20;99.90;;;;;;5056957;28;20473;-49
2022/05/05 01:50:37;;;;;;;14.63;10.70;;;7.20;99.90;;;;;;5060841;28;20063;-48
2022/05/05 01:53:03;;;;;;;19.45;11.07;;;7.20;99.90;;;;;;5056922;28;20048;-47
2022/05/05 01:55:35;;;;;;;15.52;10.82;;;7.20;99.90;;;;;;5040140;28;20633;-51
2022/05/05 01:58:02;;;;;;;17.05;10.27;;;7.10;99.90;;;;;;5033985;28;20163;-47
2022/05/05 02:00:28;;;;;;;15.57;11.10;;;7.10;99.90;;;;;;5040591;28;20060;-48
2022/05/05 02:02:55;;;;;;;18.23;10.75;;;7.00;99.90;;;;;;5046227;28;20085;-50
2022/05/05 02:05:21;;;;;;;17.02;11.32;;;7.00;99.90;;;;;;5041863;28;20557;-51
2022/05/05 02:07:47;;;;;;;16.27;11.02;;;7.00;99.90;;;;;;5039837;28;20094;-47
2022/05/05 02:10:15;;;;;;;15.25;11.55;;;7.00;99.90;;;;;;5042200;28;20506;-47
2022/05/05 02:12:42;;;;;;;12.93;11.10;;;7.00;99.90;;;;;;5042396;28;20055;-51
2022/05/05 02:15:10;;;;;;;17.30;11.65;;;6.90;99.90;;;;;;5041588;28;20091;-48
2022/05/05 02:17:36;;;;;;;19.08;11.27;;;6.90;99.90;;;;;;5041199;28;20055;-47
2022/05/05 02:20:05;;;;;;;14.70;10.88;;;6.80;99.90;;;;;;5034865;28;20079;-50
2022/05/05 02:22:31;;;;;;;16.05;11.57;;;6.70;99.90;;;;;;5042103;28;20060;-51
2022/05/05 02:24:57;;;;;;;17.17;11.57;;;6.70;99.90;;;;;;5034283;28;20049;-49
2022/05/05 02:27:23;;;;;;;17.52;11.40;;;6.60;99.90;;;;;;5033119;28;20060;-49
2022/05/05 02:29:49;;;;;;;16.90;11.35;;;6.60;99.90;;;;;;5034723;28;20405;-50
2022/05/05 02:32:16;;;;;;;18.77;12.55;;;6.60;99.90;;;;;;5029093;28;20048;-51
2022/05/05 02:34:43;;;;;;;18.02;12.85;;;6.50;99.90;;;;;;5028983;28;20053;-49
2022/05/05 02:39:58;;;;;;;20.52;12.15;;;6.50;99.90;;;;;;5043429;28;20178;-49
2022/05/05 02:42:24;;;;;;;15.02;11.82;;;6.40;99.90;;;;;;5041617;28;20480;-51
2022/05/05 02:44:50;;;;;;;17.92;11.85;;;6.40;99.90;;;;;;5041754;28;20056;-49
2022/05/05 02:47:16;;;;;;;16.42;11.35;;;6.30;99.90;;;;;;5041412;28;20041;-49
2022/05/05 02:49:41;;;;;;;16.52;11.23;;;6.30;99.90;;;;;;5041088;28;20084;-49
2022/05/05 02:52:08;;;;;;;15.30;11.32;;;6.30;99.90;;;;;;5040019;28;20186;-48
2022/05/05 02:54:55;;;;;;;19.92;12.40;;;6.30;99.90;;;;;;5045582;28;20434;-50
2022/05/05 02:57:23;;;;;;;17.33;11.30;;;6.30;99.90;;;;;;5048846;28;20577;-50
2022/05/05 02:59:55;;;;;;;14.15;10.43;;;6.30;99.90;;;;;;5060015;28;20049;-48
2022/05/05 03:02:21;;;;;;;19.25;13.10;;;6.20;99.90;;;;;;5058359;28;20045;-51
2022/05/05 03:04:47;;;;;;;16.92;11.07;;;6.20;99.90;;;;;;5049860;28;20059;-48
2022/05/05 03:07:17;;;;;;;21.75;12.00;;;6.10;99.90;;;;;;5046107;28;20056;-47
2022/05/05 03:09:43;;;;;;;17.58;10.82;;;6.00;99.90;;;;;;5060725;28;20040;-47
2022/05/05 03:12:10;;;;;;;13.95;12.10;;;6.00;99.90;;;;;;5039576;28;20436;-51
2022/05/05 03:14:37;;;;;;;18.05;11.85;;;6.00;99.90;;;;;;5055062;28;20055;-51
2022/05/05 03:17:03;;;;;;;23.67;12.38;;;6.00;99.90;;;;;;5059454;28;20079;-48
2022/05/05 03:19:29;;;;;;;15.75;12.63;;;5.90;99.90;;;;;;5048105;28;20678;-48
2022/05/05 03:21:55;;;;;;;17.35;11.98;;;5.80;99.90;;;;;;5045253;28;20040;-46
2022/05/05 03:24:21;;;;;;;18.85;12.30;;;5.90;99.90;;;;;;5059887;28;20549;-50
2022/05/05 03:26:47;;;;;;;17.80;13.23;;;5.80;99.90;;;;;;5059884;28;20048;-48
2022/05/05 03:29:16;;;;;;;18.15;12.02;;;5.70;99.90;;;;;;5060288;28;20055;-45
2022/05/05 03:31:41;;;;;;;15.00;12.00;;;5.70;99.90;;;;;;5054729;28;20045;-50
2022/05/05 03:34:07;;;;;;;14.90;12.00;;;5.70;99.90;;;;;;5057459;28;20047;-46
2022/05/05 03:36:34;;;;;;;17.38;12.15;;;5.70;99.90;;;;;;5059911;28;20048;-47
2022/05/05 03:39:00;;;;;;;14.50;11.43;;;5.60;99.90;;;;;;5058394;28;20454;-49
2022/05/05 03:41:25;;;;;;;17.33;11.68;;;5.60;99.90;;;;;;5059160;28;20044;-44
2022/05/05 03:43:54;;;;;;;19.92;13.25;;;5.60;99.90;;;;;;5046342;28;20427;-43
2022/05/05 03:46:20;;;;;;;16.38;12.60;;;5.60;99.90;;;;;;5058704;28;20073;-48
2022/05/05 03:48:46;;;;;;;21.00;12.93;;;5.50;99.90;;;;;;5059362;28;20503;-49
2022/05/05 03:51:12;;;;;;;17.23;12.57;;;5.50;99.90;;;;;;5053580;28;20056;-48
2022/05/05 03:53:38;;;;;;;17.75;12.93;;;5.40;99.90;;;;;;5055538;28;20098;-49
2022/05/05 03:56:04;;;;;;;15.40;12.52;;;5.40;99.90;;;;;;5057193;28;20044;-50
2022/05/05 03:58:31;;;;;;;24.40;12.50;;;5.40;99.90;;;;;;5059187;28;20044;-51
2022/05/05 04:00:57;;;;;;;23.60;12.13;;;5.40;99.90;;;;;;5059776;28;20080;-50
2022/05/05 04:03:31;;;;;;;13.05;10.23;;;5.40;99.90;;;;;;5036153;28;20487;-46
2022/05/05 04:05:58;;;;;;;17.73;12.18;;;5.40;99.90;;;;;;5050649;28;20051;-45
2022/05/05 04:08:27;;;;;;;16.67;12.00;;;5.40;99.90;;;;;;5059327;28;20442;-50
2022/05/05 04:10:53;;;;;;;17.13;12.35;;;5.40;99.90;;;;;;5059861;28;20152;-47
2022/05/05 04:13:20;;;;;;;18.88;11.80;;;5.40;99.90;;;;;;5051539;28;20041;-47
2022/05/05 04:15:47;;;;;;;18.08;13.00;;;5.40;99.90;;;;;;5050269;28;20171;-50
2022/05/05 04:18:13;;;;;;;19.30;14.30;;;5.40;99.90;;;;;;5052928;28;20064;-48
2022/05/05 04:20:39;;;;;;;16.98;15.18;;;5.40;99.90;;;;;;5058659;28;20363;-49
2022/05/05 04:23:06;;;;;;;23.13;14.85;;;5.40;99.90;;;;;;5059006;28;20217;-47
2022/05/05 04:25:33;;;;;;;20.48;15.35;;;5.50;99.90;;;;;;5056265;28;20491;-44
2022/05/05 04:27:59;;;;;;;17.00;13.38;;;5.50;99.90;;;;;;5055848;28;20051;-49
2022/05/05 04:30:24;;;;;;;16.13;11.18;;;5.50;99.90;;;;;;5058367;28;20060;-50
2022/05/05 04:32:51;;;;;;;18.52;11.70;;;5.50;99.90;;;;;;5049338;28;20384;-48
2022/05/05 04:35:18;;;;;;;14.38;11.55;;;5.50;99.90;;;;;;5048125;28;20446;-47
2022/05/05 04:37:44;;;;;;;16.98;12.02;;;5.50;99.90;;;;;;5053042;28;20045;-48
2022/05/05 04:40:12;;;;;;;15.00;11.85;;;5.50;99.90;;;;;;5029743;28;20171;-47
2022/05/05 04:42:38;;;;;;;15.10;11.45;;;5.60;99.90;;;;;;5051663;28;20045;-48
2022/05/05 04:45:05;;;;;;;22.17;11.88;;;5.70;99.90;;;;;;5052557;28;20142;-48
2022/05/05 04:47:33;;;;;;;13.88;11.32;;;5.80;99.90;;;;;;5051693;28;20052;-51
2022/05/05 04:49:58;;;;;;;20.98;11.50;;;6.10;99.90;;;;;;5056311;28;20574;-49
2022/05/05 04:52:24;;;;;;;16.00;12.00;;;6.60;99.90;;;;;;5056445;28;20059;-50
2022/05/05 04:54:51;;;;;;;15.18;12.45;;;7.50;99.90;;;;;;5059457;28;20590;-50
2022/05/05 04:57:20;;;;;;;15.90;12.02;;;8.50;99.90;;;;;;5058537;28;20048;-52
2022/05/05 04:59:46;;;;;;;16.42;12.82;;;9.40;99.90;;;;;;5056590;28;20493;-50
2022/05/05 05:02:12;;;;;;;16.45;10.90;;;10.10;99.90;;;;;;5062278;28;20127;-51
2022/05/05 05:04:37;;;;;;;13.02;10.98;;;10.90;99.90;;;;;;5057537;28;20052;-50
2022/05/05 05:07:03;;;;;;;13.20;10.98;;;11.50;99.90;;;;;;5038584;28;20415;-53
2022/05/05 05:09:29;;;;;;;13.77;10.43;;;11.90;99.90;;;;;;5058675;28;20082;-51
2022/05/05 05:11:55;;;;;;;12.85;10.13;;;12.30;99.90;;;;;;5050109;28;20139;-52
2022/05/05 05:14:21;;;;;;;14.68;9.90;;;12.70;99.90;;;;;;5060756;28;20057;-50
2022/05/05 05:16:47;;;;;;;13.30;10.30;;;13.00;99.90;;;;;;5061256;28;20122;-49
2022/05/05 05:19:12;;;;;;;12.30;9.60;;;13.40;99.90;;;;;;5035838;28;20076;-53
2022/05/05 05:21:38;;;;;;;15.82;10.70;;;13.90;99.90;;;;;;5043253;28;20052;-44
2022/05/05 05:24:04;;;;;;;11.23;9.52;;;14.20;99.90;;;;;;5061946;28;20056;-52
2022/05/05 05:26:30;;;;;;;13.43;10.20;;;14.70;99.90;;;;;;5053797;28;20574;-52
2022/05/05 05:28:56;;;;;;;12.23;9.48;;;15.20;99.90;;;;;;5054653;28;20040;-49
2022/05/05 05:31:22;;;;;;;14.85;9.88;;;16.00;99.90;;;;;;5050511;28;20045;-52
2022/05/05 05:33:49;;;;;;;12.30;9.38;;;16.60;99.90;;;;;;5057701;28;20582;-49
2022/05/05 05:36:15;;;;;;;15.02;9.68;;;17.00;98.70;;;;;;5051038;28;20358;-55
2022/05/05 05:38:41;;;;;;;13.30;10.00;;;17.00;96.50;;;;;;5056479;28;20056;-52
2022/05/05 05:41:08;;;;;;;12.68;9.13;;;16.20;96.30;;;;;;5062983;28;20468;-53
2022/05/05 05:43:34;;;;;;;14.45;9.88;;;15.50;98.40;;;;;;5062397;28;20495;-51
2022/05/05 05:46:00;;;;;;;16.48;10.77;;;15.20;98.10;;;;;;5061658;28;20251;-50
2022/05/05 05:48:26;;;;;;;13.48;10.38;;;14.70;98.70;;;;;;5063368;28;20055;-48
2022/05/05 05:50:52;;;;;;;14.27;10.30;;;14.20;99.80;;;;;;5063683;28;20052;-49
2022/05/05 05:53:17;;;;;;;15.13;10.70;;;13.80;99.90;;;;;;5061327;28;20044;-52
2022/05/05 05:55:43;;;;;;;12.88;11.55;;;13.30;99.90;;;;;;5056996;28;20086;-53
2022/05/05 05:58:09;;;;;;;18.65;11.40;;;12.90;99.90;;;;;;5041193;28;20064;-51
2022/05/05 06:00:35;;;;;;;15.18;11.40;;;12.70;99.90;;;;;;5059625;28;20456;-49
2022/05/05 06:05:45;;;;;;;15.45;11.88;;;13.70;99.90;;;;;;5044038;28;20123;-53
2022/05/05 06:08:11;;;;;;;12.05;10.85;;;14.90;99.90;;;;;;5026470;28;20333;-54
2022/05/05 06:10:37;;;;;;;15.43;11.65;;;15.40;99.90;;;;;;5061140;28;20075;-51
2022/05/05 06:13:05;;;;;;;13.30;10.77;;;15.90;99.90;;;;;;5055926;28;20191;-53
2022/05/05 06:15:31;;;;;;;15.38;11.30;;;16.10;99.90;;;;;;5059777;28;20123;-47
2022/05/05 06:17:57;;;;;;;17.73;11.80;;;16.30;99.90;;;;;;5043892;28;20503;-55
2022/05/05 06:20:23;;;;;;;16.55;11.02;;;16.80;99.50;;;;;;5044724;28;20048;-50
2022/05/05 06:22:51;;;;;;;15.30;11.25;;;16.70;99.30;;;;;;5063342;28;20048;-54
2022/05/05 06:25:20;;;;;;;14.95;11.88;;;16.00;99.80;;;;;;5049473;28;20072;-53
2022/05/05 06:27:48;;;;;;;15.63;11.93;;;15.40;99.90;;;;;;5042364;28;20130;-45
2022/05/05 06:30:14;;;;;;;13.02;11.20;;;14.80;99.90;;;;;;5061014;28;20592;-55
2022/05/05 06:32:40;;;;;;;14.65;12.60;;;14.50;99.90;;;;;;5035815;28;20087;-53
2022/05/05 06:35:07;;;;;;;16.65;12.65;;;14.20;99.90;;;;;;5052915;28;20099;-50
2022/05/05 06:37:33;;;;;;;20.23;12.60;;;14.00;99.90;;;;;;5059932;28;20063;-51
2022/05/05 06:40:00;;;;;;;15.20;12.10;;;13.80;99.90;;;;;;5053738;28;20045;-53
2022/05/05 06:42:28;;;;;;;21.67;11.43;;;13.50;99.90;;;;;;5055566;28;20521;-50
2022/05/05 06:44:53;;;;;;;15.82;10.68;;;13.50;99.90;;;;;;5051316;28;20051;-54
2022/05/05 06:47:20;;;;;;;17.90;10.07;;;13.30;99.90;;;;;;5053700;28;20048;-54
2022/05/05 06:49:45;;;;;;;14.98;10.68;;;13.20;99.90;;;;;;5059806;28;20581;-51
2022/05/05 06:52:11;;;;;;;19.40;10.45;;;13.10;99.90;;;;;;5058789;28;20052;-49
2022/05/05 06:54:37;;;;;;;16.77;11.32;;;13.00;99.90;;;;;;5058819;28;20548;-53
2022/05/05 06:57:03;;;;;;;13.07;10.35;;;12.90;99.90;;;;;;5058261;28;20060;-53
2022/05/05 06:59:30;;;;;;;15.75;11.38;;;12.80;99.90;;;;;;5034838;28;20391;-53
2022/05/05 07:02:00;;;;;;;11.93;10.27;;;12.80;99.90;;;;;;5058825;28;20419;-50
2022/05/05 07:07:13;;;;;;;17.38;11.63;;;12.70;99.90;;;;;;5053502;28;20083;-50
2022/05/05 07:12:30;;;;;;;17.20;11.10;;;12.50;99.90;;;;;;5003725;28;20062;-48
2022/05/05 07:14:57;;;;;;;18.27;11.45;;;12.50;99.90;;;;;;5002559;28;20225;-51
2022/05/05 07:17:23;;;;;;;12.55;10.05;;;12.40;99.90;;;;;;4998212;28;20254;-50
2022/05/05 07:19:50;;;;;;;14.63;11.57;;;12.50;99.90;;;;;;5007305;28;20152;-52
2022/05/05 07:22:15;;;;;;;16.73;10.88;;;12.50;99.90;;;;;;4989096;28;20575;-51
2022/05/05 07:24:41;;;;;;;15.40;11.48;;;12.50;99.90;;;;;;5002590;28;20069;-54
2022/05/05 07:27:07;;;;;;;15.55;11.38;;;12.50;99.90;;;;;;4999265;28;20038;-47
2022/05/05 07:29:33;;;;;;;14.35;11.55;;;12.60;99.90;;;;;;5003198;28;20124;-50
2022/05/05 07:31:59;;;;;;;14.13;11.20;;;12.70;99.90;;;;;;5003599;28;20046;-52
2022/05/05 07:34:26;;;;;;;15.90;11.55;;;12.80;99.90;;;;;;5006093;28;20058;-49
2022/05/05 07:36:52;;;;;;;16.50;11.07;;;12.90;99.90;;;;;;5000525;28;20580;-50
2022/05/05 07:39:17;;;;;;;17.05;11.52;;;12.90;99.90;;;;;;5006160;28;20045;-51
2022/05/05 07:41:43;;;;;;;13.73;10.63;;;13.00;99.90;;;;;;5003664;28;20072;-56
2022/05/05 07:44:09;;;;;;;20.58;12.65;;;13.10;99.90;;;;;;5000261;28;20164;-53
2022/05/05 07:46:36;;;;;;;17.48;11.15;;;13.10;99.90;;;;;;5009069;28;20415;-51
2022/05/05 07:49:05;;;;;;;15.68;10.93;;;13.20;99.90;;;;;;4992851;28;20135;-47
2022/05/05 07:51:32;;;;;;;17.05;11.30;;;13.30;99.90;;;;;;5015013;28;20053;-52
2022/05/05 07:56:45;;;;;;;14.50;11.55;;;13.50;99.90;;;;;;5053061;28;20048;-55
2022/05/05 07:59:12;;;;;;;13.48;11.18;;;13.70;99.90;;;;;;5048638;28;20123;-51
2022/05/05 08:01:38;;;;;;;15.77;11.32;;;13.90;99.90;;;;;;5054380;28;20052;-54
2022/05/05 08:04:05;;;;;;;14.90;11.18;;;14.10;99.90;;;;;;5048044;28;20366;-53
2022/05/05 08:06:31;;;;;;;17.40;11.43;;;14.20;99.90;;;;;;5052972;28;20052;-52
2022/05/05 08:08:58;;;;;;;18.20;11.48;;;14.40;99.90;;;;;;5059272;28;20048;-53
2022/05/05 08:11:23;;;;;;;16.38;10.95;;;14.50;99.90;;;;;;5053467;28;20663;-49
2022/05/05 08:13:49;;;;;;;17.88;10.85;;;14.60;99.90;;;;;;5050271;28;20045;-54
2022/05/05 08:16:16;;;;;;;15.65;9.95;;;14.70;99.90;;;;;;5053526;28;20052;-48
2022/05/05 08:18:43;;;;;;;16.58;9.82;;;14.70;99.90;;;;;;5061952;28;20197;-49
2022/05/05 08:21:11;;;;;;;16.92;10.35;;;14.80;99.90;;;;;;5056881;28;20037;-52
2022/05/05 08:23:37;;;;;;;15.40;10.18;;;15.00;99.90;;;;;;5061610;28;20062;-50
2022/05/05 08:28:48;;;;;;;18.15;10.25;;;15.30;99.90;;;;;;5058128;28;20059;-52
2022/05/05 08:31:17;;;;;;;13.52;9.00;;;15.40;99.90;;;;;;5044239;28;20048;-50
2022/05/05 08:33:43;;;;;;;13.75;7.78;;;15.60;99.90;;;;;;5061697;28;20040;-56
2022/05/05 08:36:09;;;;;;;14.10;8.15;;;15.70;99.90;;;;;;5057844;28;20443;-53
2022/05/05 08:38:35;;;;;;;17.23;8.70;;;15.90;99.90;;;;;;5059210;28;20406;-50
2022/05/05 08:41:02;;;;;;;16.02;9.85;;;16.30;99.90;;;;;;5042214;28;20048;-53
2022/05/05 08:43:28;;;;;;;12.75;8.93;;;16.50;99.90;;;;;;5057301;28;20048;-46
2022/05/05 08:45:57;;;;;;;11.10;7.47;;;16.70;99.90;;;;;;5056565;28;20261;-47
2022/05/05 08:48:23;;;;;;;10.60;6.97;;;17.00;99.90;;;;;;5060901;28;20127;-50
2022/05/05 08:50:56;;;;;;;13.93;7.72;;;17.10;99.80;;;;;;5064102;28;20098;-48
2022/05/05 08:53:29;;;;;;;17.95;8.95;;;17.20;99.80;;;;;;5065794;28;20048;-56
2022/05/05 08:55:55;;;;;;;14.45;8.50;;;17.30;99.10;;;;;;5055377;28;20108;-57
2022/05/05 08:58:22;;;;;;;13.38;8.13;;;17.40;99.80;;;;;;5063222;28;20143;-52
2022/05/05 09:00:54;;;;;;;11.52;8.00;;;17.70;99.90;;;;;;5062764;28;20054;-52
2022/05/05 09:03:20;;;;;;;11.27;7.03;;;18.10;98.70;;;;;;5062137;28;20121;-54
2022/05/05 09:05:51;;;;;;;10.52;7.85;;;18.30;99.00;;;;;;5049433;28;20049;-53
2022/05/05 09:08:23;;;;;;;11.75;7.90;;;18.40;97.60;;;;;;5060941;28;20612;-51
2022/05/05 09:10:50;;;;;;;12.63;8.05;;;18.50;97.40;;;;;;5054061;28;20041;-55
2022/05/05 09:13:24;;;;;;;9.32;6.97;;;18.40;97.20;;;;;;5053365;28;20087;-56
2022/05/05 09:15:51;;;;;;;10.02;6.50;;;18.40;97.80;;;;;;5056683;28;20041;-55
2022/05/05 09:18:22;;;;;;;9.25;8.32;;;18.50;97.50;;;;;;5052279;28;20040;-54
2022/05/05 09:20:49;;;;;;;11.10;9.40;;;18.70;98.00;;;;;;5055390;28;20048;-55
2022/05/05 09:24:34;;;;;;;10.15;7.95;;;18.90;96.60;;;;;;5050539;28;20048;-55
2022/05/05 09:26:30;;;;;;;11.25;7.63;;;18.90;95.40;;;;;;5048801;28;20041;-53
2022/05/05 09:28:57;;;;;;;10.30;9.02;;;19.20;96.70;;;;;;5033156;28;20045;-51
2022/05/05 09:31:23;;;;;;;16.70;14.23;;;19.50;96.40;;;;;;5054878;28;20376;-51
2022/05/05 09:33:50;;;;;;;14.13;12.65;;;19.50;96.20;;;;;;5052725;28;20466;-53
2022/05/05 09:36:26;;;;;;;13.98;12.57;;;19.40;94.30;;;;;;5050971;28;20415;-52
2022/05/05 09:39:03;;;;;;;13.35;11.00;;;19.30;94.40;;;;;;5054286;28;20079;-52
2022/05/05 09:41:44;;;;;;;12.68;11.30;;;19.00;94.20;;;;;;5054108;28;20462;-53
2022/05/05 09:44:21;;;;;;;11.05;9.85;;;19.00;94.40;;;;;;5036390;28;20043;-55
2022/05/05 09:46:48;;;;;;;11.00;9.90;;;19.00;95.40;;;;;;5052739;28;20055;-51
2022/05/05 09:49:18;;;;;;;11.85;9.63;;;19.00;95.00;;;;;;5049168;28;20045;-51
2022/05/05 09:57:43;;;;;;;20.73;10.70;;;19.00;95.50;;;;;;5059976;28;20045;-46
2022/05/05 10:05:52;;;;;;;13.23;9.93;;;19.60;94.60;;;;;;5062460;28;20056;-53
2022/05/05 10:08:23;;;;;;;18.42;10.23;;;19.70;95.10;;;;;;5063388;28;20483;-49
2022/05/05 10:10:49;;;;;;;14.07;10.05;;;19.50;94.50;;;;;;5063023;28;20044;-52
2022/05/05 10:13:20;;;;;;;16.15;10.85;;;19.50;94.40;;;;;;5038614;28;20063;-53
2022/05/05 10:15:49;;;;;;;16.58;9.85;;;19.40;94.30;;;;;;5046742;28;20126;-54
2022/05/05 10:18:17;;;;;;;10.88;9.85;;;19.40;94.70;;;;;;5056853;28;20051;-52
2022/05/05 10:20:48;;;;;;;12.77;10.63;;;19.60;95.30;;;;;;5042797;28;20052;-54
2022/05/05 10:23:22;;;;;;;13.05;10.48;;;19.80;94.70;;;;;;5042680;28;20053;-54
2022/05/05 10:25:55;;;;;;;12.95;10.88;;;20.00;95.30;;;;;;5060240;28;20056;-51
2022/05/05 10:28:47;;;;;;;12.50;10.57;;;20.10;94.90;;;;;;5042483;28;20064;-55
2022/05/05 10:31:31;;;;;;;12.85;10.05;;;20.20;94.40;;;;;;5041608;28;20079;-55
2022/05/05 10:34:06;;;;;;;11.70;10.50;;;20.30;94.50;;;;;;5045367;28;20109;-51
2022/05/05 10:36:34;;;;;;;11.07;9.85;;;20.30;94.00;;;;;;5045145;28;20053;-50
2022/05/05 10:39:19;;;;;;;12.82;10.88;;;20.30;94.10;;;;;;5050660;28;20287;-51
2022/05/05 10:41:45;;;;;;;11.10;9.95;;;20.20;94.90;;;;;;5055157;28;20517;-55
2022/05/05 10:44:23;;;;;;;12.27;10.10;;;20.40;94.30;;;;;;5054471;28;20054;-52
2022/05/05 10:47:03;;;;;;;10.90;9.80;;;20.60;93.70;;;;;;5029229;28;20456;-55
2022/05/05 10:49:32;;;;;;;11.75;10.48;;;20.60;92.90;;;;;;5054115;28;20052;-54
2022/05/05 10:52:16;;;;;;;10.50;9.35;;;20.50;92.10;;;;;;5057465;28;20050;-53
2022/05/05 10:54:46;;;;;;;10.07;9.02;;;20.40;92.90;;;;;;5054075;28;20451;-47
2022/05/05 10:57:24;;;;;;;12.65;9.93;;;20.40;94.10;;;;;;5052430;28;20543;-51
2022/05/05 11:00:14;;;;;;;13.52;9.85;;;20.50;94.10;;;;;;5053332;28;20040;-53
2022/05/05 11:03:03;;;;;;;9.80;8.25;;;20.50;93.20;;;;;;5055027;28;20083;-52
2022/05/05 11:05:30;;;;;;;11.40;9.15;;;20.80;94.00;;;;;;5044027;28;20060;-50
2022/05/05 11:08:15;;;;;;;12.50;9.63;;;20.70;92.90;;;;;;5049453;28;20448;-51
2022/05/05 11:13:45;;;;;;;12.65;9.57;;;20.80;92.60;;;;;;5046119;28;20471;-51
2022/05/05 11:22:07;;;;;;;11.05;9.95;;;20.60;92.10;;;;;;5058986;28;20827;-51
2022/05/05 11:24:33;;;;;;;12.48;9.57;;;20.50;92.00;;;;;;5054953;28;20063;-52
2022/05/05 11:27:00;;;;;;;10.38;9.32;;;20.30;94.20;;;;;;5063778;28;20144;-51
2022/05/05 11:29:32;;;;;;;12.88;9.65;;;20.50;93.80;;;;;;5055267;28;20068;-55
2022/05/05 11:31:58;;;;;;;;;;;20.50;92.50;;;;;;5060080;28;20044;-53
2022/05/05 11:34:40;;;;;;;10.75;9.13;;;20.40;93.20;;;;;;5058601;28;19932;-44
2022/05/05 11:37:08;;;;;;;13.93;10.25;;;20.40;92.40;;;;;;5051560;28;20056;-53
2022/05/05 11:39:35;;;;;;;9.55;8.57;;;20.30;92.80;;;;;;5059284;28;20586;-53
2022/05/05 11:42:01;;;;;;;13.52;9.65;;;20.40;92.90;;;;;;5051321;28;20056;-48
2022/05/05 11:44:27;;;;;;;14.15;9.70;;;20.40;93.00;;;;;;5058035;28;20044;-51
2022/05/05 11:46:57;;;;;;;13.23;9.85;;;20.60;93.20;;;;;;5058631;28;20052;-49
2022/05/05 11:49:32;;;;;;;12.73;9.95;;;20.70;93.60;;;;;;5048276;28;20160;-49
2022/05/05 11:52:02;;;;;;;12.75;10.38;;;20.80;93.50;;;;;;5051380;28;20052;-52
2022/05/05 11:54:32;;;;;;;14.73;10.70;;;21.00;93.40;;;;;;5056874;28;20040;-51
2022/05/05 11:56:59;;;;;;;11.65;9.77;;;21.10;93.00;;;;;;5051324;28;20052;-54
2022/05/05 12:02:21;;;;;;;11.93;10.73;;;21.20;93.10;;;;;;5045370;28;20059;-53
2022/05/05 12:04:52;;;;;;;13.13;10.20;;;20.90;92.50;;;;;;5055571;28;20056;-52
2022/05/05 12:07:20;;;;;;;12.63;11.32;;;21.10;92.40;;;;;;5058660;28;20106;-53
2022/05/05 12:09:51;;;;;;;11.45;10.15;;;21.20;93.20;;;;;;5031942;28;20460;-54
2022/05/05 12:12:25;;;;;;;11.43;10.00;;;21.40;92.50;;;;;;5052710;28;20056;-50
2022/05/05 12:14:58;;;;;;;11.77;10.07;;;21.30;93.00;;;;;;5046372;28;20500;-50
2022/05/05 12:17:49;;;;;;;12.02;10.82;;;21.30;91.90;;;;;;5057324;28;20390;-50
2022/05/05 12:20:18;;;;;;;11.88;10.40;;;21.10;91.10;;;;;;5041663;28;20056;-50
2022/05/05 12:22:52;;;;;;;11.48;10.27;;;21.20;91.80;;;;;;5052492;28;20049;-52
2022/05/05 12:25:18;;;;;;;11.38;10.23;;;21.10;90.80;;;;;;5039338;28;20045;-50
2022/05/05 12:27:47;;;;;;;12.80;10.70;;;21.00;91.60;;;;;;5056265;28;20044;-53
2022/05/05 12:30:40;;;;;;;12.13;10.93;;;20.80;91.80;;;;;;5058433;28;20083;-54
2022/05/05 12:33:08;;;;;;;10.93;9.82;;;20.90;91.00;;;;;;5050865;28;20043;-53
2022/05/05 12:35:38;;;;;;;10.85;9.50;;;20.90;91.60;;;;;;5058919;28;20659;-52
2022/05/05 12:38:06;;;;;;;10.75;9.27;;;20.90;91.50;;;;;;5039941;28;20094;-50
2022/05/05 12:40:33;;;;;;;12.27;10.10;;;21.10;91.30;;;;;;5053032;28;20052;-53
2022/05/05 12:43:22;;;;;;;12.15;10.77;;;21.00;91.40;;;;;;5034482;28;20063;-51
2022/05/05 12:45:48;;;;;;;13.65;12.25;;;21.10;91.00;;;;;;5055788;28;20094;-53
2022/05/05 12:48:14;;;;;;;13.60;11.50;;;21.00;91.10;;;;;;5052615;28;20048;-53
2022/05/05 12:50:47;;;;;;;15.55;12.77;;;20.90;91.60;;;;;;5061726;28;20126;-58
2022/05/05 13:01:36;;;;;;;17.10;15.40;;;21.00;92.00;;;;;;5060450;28;20055;-51
2022/05/05 13:04:12;;;;;;;21.80;16.02;;;21.00;92.10;;;;;;5061708;28;20095;-51
2022/05/05 13:06:39;;;;;;;18.70;16.80;;;20.90;93.20;;;;;;5054933;28;20518;-55
2022/05/05 13:09:08;;;;;;;22.10;18.38;;;20.70;93.10;;;;;;5060632;28;20048;-51
2022/05/05 13:11:34;;;;;;;21.30;18.13;;;20.80;93.30;;;;;;5057042;28;20083;-51
2022/05/05 13:14:02;;;;;;;27.35;18.83;;;20.70;93.00;;;;;;5059879;28;20484;-50
2022/05/05 13:16:29;;;;;;;21.65;18.10;;;20.70;92.80;;;;;;5057199;28;20086;-51
2022/05/05 13:19:01;;;;;;;22.85;19.65;;;20.80;93.00;;;;;;5056093;28;20168;-52
2022/05/05 13:21:27;;;;;;;22.50;18.88;;;20.90;93.00;;;;;;5025234;28;20402;-56
2022/05/05 13:23:53;;;;;;;19.17;17.38;;;21.00;93.80;;;;;;5057504;28;20076;-52
2022/05/05 13:26:19;;;;;;;22.55;17.00;;;21.10;92.60;;;;;;5051191;28;20053;-53
2022/05/05 13:28:46;;;;;;;19.60;17.27;;;21.20;93.30;;;;;;5049919;28;20076;-51
2022/05/05 13:31:12;;;;;;;24.63;20.20;;;21.10;93.70;;;;;;5041103;28;20048;-47
2022/05/05 13:33:38;;;;;;;20.38;16.58;;;21.20;93.20;;;;;;5049572;28;20045;-52